sensor_id;sensor_type;location;lat;lon;timestamp;P1;durP1;ratioP1;P2;durP2;ratioP2
16393;SDS011;8306;51.128;4.476;2023-12-04T00:00:48;7.70;;;7.03;;
16393;SDS011;8306;51.128;4.476;2023-12-04T00:03:15;8.03;;;7.23;;
16393;SDS011;8306;51.128;4.476;2023-12-04T00:05:44;7.23;;;6.63;;
16393;SDS011;8306;51.128;4.476;2023-12-04T00:08:10;7.10;;;6.50;;
16393;SDS011;8306;51.128;4.476;2023-12-04T00:10:37;8.23;;;7.43;;
16393;SDS011;8306;51.128;4.476;2023-12-04T00:13:03;6.67;;;6.07;;
16393;SDS011;8306;51.128;4.476;2023-12-04T00:15:30;7.33;;;6.70;;
16393;SDS011;8306;51.128;4.476;2023-12-04T00:17:56;7.17;;;6.53;;
16393;SDS011;8306;51.128;4.476;2023-12-04T00:20:23;6.90;;;6.30;;
16393;SDS011;8306;51.128;4.476;2023-12-04T00:22:49;7.07;;;6.47;;
16393;SDS011;8306;51.128;4.476;2023-12-04T00:25:16;7.07;;;6.47;;
16393;SDS011;8306;51.128;4.476;2023-12-04T00:27:42;6.60;;;6.10;;
16393;SDS011;8306;51.128;4.476;2023-12-04T00:30:09;7.57;;;6.87;;
16393;SDS011;8306;51.128;4.476;2023-12-04T00:32:35;7.27;;;6.67;;
16393;SDS011;8306;51.128;4.476;2023-12-04T00:35:02;7.17;;;6.57;;
16393;SDS011;8306;51.128;4.476;2023-12-04T00:37:29;7.10;;;6.50;;
16393;SDS011;8306;51.128;4.476;2023-12-04T00:39:55;8.03;;;7.23;;
16393;SDS011;8306;51.128;4.476;2023-12-04T00:42:22;7.47;;;6.83;;
16393;SDS011;8306;51.128;4.476;2023-12-04T00:44:49;6.87;;;6.27;;
16393;SDS011;8306;51.128;4.476;2023-12-04T00:47:15;6.63;;;6.13;;
16393;SDS011;8306;51.128;4.476;2023-12-04T00:49:42;6.57;;;6.07;;
16393;SDS011;8306;51.128;4.476;2023-12-04T00:52:08;6.57;;;6.03;;
16393;SDS011;8306;51.128;4.476;2023-12-04T00:54:35;7.23;;;6.63;;
16393;SDS011;8306;51.128;4.476;2023-12-04T00:57:01;7.00;;;6.40;;
16393;SDS011;8306;51.128;4.476;2023-12-04T00:59:28;6.60;;;6.00;;
16393;SDS011;8306;51.128;4.476;2023-12-04T01:01:54;6.47;;;5.90;;
16393;SDS011;8306;51.128;4.476;2023-12-04T01:04:21;6.70;;;6.17;;
16393;SDS011;8306;51.128;4.476;2023-12-04T01:06:47;6.27;;;5.77;;
16393;SDS011;8306;51.128;4.476;2023-12-04T01:09:14;6.60;;;6.00;;
16393;SDS011;8306;51.128;4.476;2023-12-04T01:11:40;6.67;;;6.07;;
16393;SDS011;8306;51.128;4.476;2023-12-04T01:14:07;5.63;;;5.17;;
16393;SDS011;8306;51.128;4.476;2023-12-04T01:16:33;6.20;;;5.60;;
16393;SDS011;8306;51.128;4.476;2023-12-04T01:19:00;6.10;;;5.60;;
16393;SDS011;8306;51.128;4.476;2023-12-04T01:21:26;6.50;;;5.93;;
16393;SDS011;8306;51.128;4.476;2023-12-04T01:23:52;6.27;;;5.67;;
16393;SDS011;8306;51.128;4.476;2023-12-04T01:26:19;6.17;;;5.67;;
16393;SDS011;8306;51.128;4.476;2023-12-04T01:28:45;6.30;;;5.80;;
16393;SDS011;8306;51.128;4.476;2023-12-04T01:31:12;6.40;;;5.80;;
16393;SDS011;8306;51.128;4.476;2023-12-04T01:33:38;6.60;;;6.07;;
16393;SDS011;8306;51.128;4.476;2023-12-04T01:36:05;6.20;;;5.70;;
16393;SDS011;8306;51.128;4.476;2023-12-04T01:38:31;5.93;;;5.50;;
16393;SDS011;8306;51.128;4.476;2023-12-04T01:40:58;8.70;;;6.30;;
16393;SDS011;8306;51.128;4.476;2023-12-04T01:43:25;6.30;;;5.80;;
16393;SDS011;8306;51.128;4.476;2023-12-04T01:45:51;5.70;;;5.27;;
16393;SDS011;8306;51.128;4.476;2023-12-04T01:48:18;5.77;;;5.27;;
16393;SDS011;8306;51.128;4.476;2023-12-04T01:50:44;6.40;;;5.80;;
16393;SDS011;8306;51.128;4.476;2023-12-04T01:53:11;5.97;;;5.47;;
16393;SDS011;8306;51.128;4.476;2023-12-04T01:55:37;5.90;;;5.40;;
16393;SDS011;8306;51.128;4.476;2023-12-04T01:58:04;5.90;;;5.40;;
16393;SDS011;8306;51.128;4.476;2023-12-04T02:00:31;5.50;;;5.00;;
16393;SDS011;8306;51.128;4.476;2023-12-04T02:02:57;5.50;;;5.10;;
16393;SDS011;8306;51.128;4.476;2023-12-04T02:05:23;5.30;;;4.90;;
16393;SDS011;8306;51.128;4.476;2023-12-04T02:07:50;5.47;;;4.97;;
16393;SDS011;8306;51.128;4.476;2023-12-04T02:10:16;5.93;;;5.33;;
16393;SDS011;8306;51.128;4.476;2023-12-04T02:12:43;6.10;;;5.60;;
16393;SDS011;8306;51.128;4.476;2023-12-04T02:15:09;6.10;;;5.60;;
16393;SDS011;8306;51.128;4.476;2023-12-04T02:17:36;5.73;;;5.30;;
16393;SDS011;8306;51.128;4.476;2023-12-04T02:20:02;6.07;;;5.20;;
16393;SDS011;8306;51.128;4.476;2023-12-04T02:22:28;6.00;;;5.50;;
16393;SDS011;8306;51.128;4.476;2023-12-04T02:24:55;7.53;;;4.60;;
16393;SDS011;8306;51.128;4.476;2023-12-04T02:27:22;5.40;;;5.00;;
16393;SDS011;8306;51.128;4.476;2023-12-04T02:29:58;5.47;;;4.97;;
16393;SDS011;8306;51.128;4.476;2023-12-04T02:32:23;5.63;;;5.20;;
16393;SDS011;8306;51.128;4.476;2023-12-04T02:34:49;6.00;;;5.50;;
16393;SDS011;8306;51.128;4.476;2023-12-04T02:37:16;5.47;;;5.07;;
16393;SDS011;8306;51.128;4.476;2023-12-04T02:39:42;5.77;;;5.27;;
16393;SDS011;8306;51.128;4.476;2023-12-04T02:42:09;5.33;;;4.93;;
16393;SDS011;8306;51.128;4.476;2023-12-04T02:44:35;5.50;;;5.00;;
16393;SDS011;8306;51.128;4.476;2023-12-04T02:47:02;5.60;;;5.10;;
16393;SDS011;8306;51.128;4.476;2023-12-04T02:49:28;5.83;;;5.37;;
16393;SDS011;8306;51.128;4.476;2023-12-04T02:51:55;5.70;;;5.20;;
16393;SDS011;8306;51.128;4.476;2023-12-04T02:54:21;5.50;;;5.10;;
16393;SDS011;8306;51.128;4.476;2023-12-04T02:56:48;6.33;;;5.83;;
16393;SDS011;8306;51.128;4.476;2023-12-04T02:59:14;5.77;;;5.27;;
16393;SDS011;8306;51.128;4.476;2023-12-04T03:01:41;4.57;;;4.23;;
16393;SDS011;8306;51.128;4.476;2023-12-04T03:04:07;5.13;;;4.73;;
16393;SDS011;8306;51.128;4.476;2023-12-04T03:06:34;5.13;;;4.73;;
16393;SDS011;8306;51.128;4.476;2023-12-04T03:09:00;5.13;;;4.63;;
16393;SDS011;8306;51.128;4.476;2023-12-04T03:11:27;5.00;;;4.60;;
16393;SDS011;8306;51.128;4.476;2023-12-04T03:13:53;5.00;;;4.60;;
16393;SDS011;8306;51.128;4.476;2023-12-04T03:16:19;4.77;;;4.37;;
16393;SDS011;8306;51.128;4.476;2023-12-04T03:18:46;5.00;;;4.60;;
16393;SDS011;8306;51.128;4.476;2023-12-04T03:21:12;4.87;;;4.47;;
16393;SDS011;8306;51.128;4.476;2023-12-04T03:23:39;5.20;;;4.80;;
16393;SDS011;8306;51.128;4.476;2023-12-04T03:26:05;5.43;;;5.03;;
16393;SDS011;8306;51.128;4.476;2023-12-04T03:28:32;5.53;;;5.03;;
16393;SDS011;8306;51.128;4.476;2023-12-04T03:30:58;4.77;;;4.40;;
16393;SDS011;8306;51.128;4.476;2023-12-04T03:33:25;4.70;;;4.30;;
16393;SDS011;8306;51.128;4.476;2023-12-04T03:35:51;4.33;;;4.03;;
16393;SDS011;8306;51.128;4.476;2023-12-04T03:38:18;4.73;;;4.33;;
16393;SDS011;8306;51.128;4.476;2023-12-04T03:40:44;9.30;;;8.40;;
16393;SDS011;8306;51.128;4.476;2023-12-04T03:43:11;18.13;;;16.37;;
16393;SDS011;8306;51.128;4.476;2023-12-04T03:45:37;19.27;;;17.23;;
16393;SDS011;8306;51.128;4.476;2023-12-04T03:48:04;16.17;;;14.57;;
16393;SDS011;8306;51.128;4.476;2023-12-04T03:50:30;13.83;;;12.60;;
16393;SDS011;8306;51.128;4.476;2023-12-04T03:52:57;11.67;;;10.60;;
16393;SDS011;8306;51.128;4.476;2023-12-04T03:55:23;9.70;;;8.87;;
16393;SDS011;8306;51.128;4.476;2023-12-04T03:57:50;7.73;;;7.03;;
16393;SDS011;8306;51.128;4.476;2023-12-04T04:00:16;5.97;;;5.47;;
16393;SDS011;8306;51.128;4.476;2023-12-04T04:02:43;6.30;;;5.73;;
16393;SDS011;8306;51.128;4.476;2023-12-04T04:05:09;6.53;;;5.93;;
16393;SDS011;8306;51.128;4.476;2023-12-04T04:07:36;5.63;;;5.13;;
16393;SDS011;8306;51.128;4.476;2023-12-04T04:10:02;5.17;;;4.77;;
16393;SDS011;8306;51.128;4.476;2023-12-04T04:12:29;5.67;;;5.27;;
16393;SDS011;8306;51.128;4.476;2023-12-04T04:14:55;5.73;;;5.23;;
16393;SDS011;8306;51.128;4.476;2023-12-04T04:17:21;5.70;;;5.30;;
16393;SDS011;8306;51.128;4.476;2023-12-04T04:19:48;5.10;;;4.70;;
16393;SDS011;8306;51.128;4.476;2023-12-04T04:22:14;5.77;;;5.30;;
16393;SDS011;8306;51.128;4.476;2023-12-04T04:24:41;5.23;;;4.83;;
16393;SDS011;8306;51.128;4.476;2023-12-04T04:27:07;5.53;;;5.03;;
16393;SDS011;8306;51.128;4.476;2023-12-04T04:29:34;5.70;;;5.20;;
16393;SDS011;8306;51.128;4.476;2023-12-04T04:32:00;5.57;;;5.17;;
16393;SDS011;8306;51.128;4.476;2023-12-04T04:34:27;5.70;;;5.30;;
16393;SDS011;8306;51.128;4.476;2023-12-04T04:36:53;5.20;;;4.80;;
16393;SDS011;8306;51.128;4.476;2023-12-04T04:39:20;5.07;;;4.67;;
16393;SDS011;8306;51.128;4.476;2023-12-04T04:41:46;5.30;;;4.90;;
16393;SDS011;8306;51.128;4.476;2023-12-04T04:44:13;4.60;;;4.20;;
16393;SDS011;8306;51.128;4.476;2023-12-04T04:46:39;5.57;;;5.10;;
16393;SDS011;8306;51.128;4.476;2023-12-04T04:49:06;5.17;;;4.77;;
16393;SDS011;8306;51.128;4.476;2023-12-04T04:51:32;5.07;;;4.67;;
16393;SDS011;8306;51.128;4.476;2023-12-04T04:53:59;7.60;;;7.00;;
16393;SDS011;8306;51.128;4.476;2023-12-04T04:56:25;9.97;;;9.07;;
16393;SDS011;8306;51.128;4.476;2023-12-04T04:58:51;12.37;;;11.37;;
16393;SDS011;8306;51.128;4.476;2023-12-04T05:01:18;11.80;;;10.70;;
16393;SDS011;8306;51.128;4.476;2023-12-04T05:03:44;10.43;;;9.53;;
16393;SDS011;8306;51.128;4.476;2023-12-04T05:06:11;7.93;;;7.20;;
16393;SDS011;8306;51.128;4.476;2023-12-04T05:08:37;6.70;;;6.10;;
16393;SDS011;8306;51.128;4.476;2023-12-04T05:11:04;5.20;;;4.80;;
16393;SDS011;8306;51.128;4.476;2023-12-04T05:13:30;4.90;;;4.50;;
16393;SDS011;8306;51.128;4.476;2023-12-04T05:15:57;4.63;;;4.23;;
16393;SDS011;8306;51.128;4.476;2023-12-04T05:18:23;4.40;;;4.00;;
16393;SDS011;8306;51.128;4.476;2023-12-04T05:20:50;4.30;;;4.00;;
16393;SDS011;8306;51.128;4.476;2023-12-04T05:23:16;5.10;;;4.70;;
16393;SDS011;8306;51.128;4.476;2023-12-04T05:25:43;4.80;;;4.40;;
16393;SDS011;8306;51.128;4.476;2023-12-04T05:28:09;4.40;;;4.00;;
16393;SDS011;8306;51.128;4.476;2023-12-04T05:30:36;5.07;;;4.57;;
16393;SDS011;8306;51.128;4.476;2023-12-04T05:33:02;4.47;;;4.17;;
16393;SDS011;8306;51.128;4.476;2023-12-04T05:35:29;4.20;;;3.90;;
16393;SDS011;8306;51.128;4.476;2023-12-04T05:37:55;4.70;;;4.30;;
16393;SDS011;8306;51.128;4.476;2023-12-04T05:40:22;4.33;;;4.03;;
16393;SDS011;8306;51.128;4.476;2023-12-04T05:42:48;4.53;;;4.23;;
16393;SDS011;8306;51.128;4.476;2023-12-04T05:45:15;4.20;;;3.90;;
16393;SDS011;8306;51.128;4.476;2023-12-04T05:47:41;4.20;;;3.90;;
16393;SDS011;8306;51.128;4.476;2023-12-04T05:50:08;4.40;;;4.00;;
16393;SDS011;8306;51.128;4.476;2023-12-04T05:52:34;4.20;;;3.90;;
16393;SDS011;8306;51.128;4.476;2023-12-04T05:55:01;4.77;;;4.37;;
16393;SDS011;8306;51.128;4.476;2023-12-04T05:57:27;4.20;;;3.90;;
16393;SDS011;8306;51.128;4.476;2023-12-04T05:59:54;4.23;;;3.93;;
16393;SDS011;8306;51.128;4.476;2023-12-04T06:02:20;5.70;;;5.30;;
16393;SDS011;8306;51.128;4.476;2023-12-04T06:04:47;10.87;;;10.10;;
16393;SDS011;8306;51.128;4.476;2023-12-04T06:07:13;14.90;;;13.90;;
16393;SDS011;8306;51.128;4.476;2023-12-04T06:09:40;18.90;;;17.60;;
16393;SDS011;8306;51.128;4.476;2023-12-04T06:12:06;18.47;;;17.33;;
16393;SDS011;8306;51.128;4.476;2023-12-04T06:14:33;16.90;;;15.83;;
16393;SDS011;8306;51.128;4.476;2023-12-04T06:16:59;14.43;;;13.53;;
16393;SDS011;8306;51.128;4.476;2023-12-04T06:19:27;11.20;;;10.40;;
16393;SDS011;8306;51.128;4.476;2023-12-04T06:21:52;8.10;;;7.60;;
16393;SDS011;8306;51.128;4.476;2023-12-04T06:24:19;6.67;;;6.17;;
16393;SDS011;8306;51.128;4.476;2023-12-04T06:26:45;4.90;;;4.60;;
16393;SDS011;8306;51.128;4.476;2023-12-04T06:29:12;4.37;;;4.07;;
16393;SDS011;8306;51.128;4.476;2023-12-04T06:31:38;4.30;;;4.00;;
16393;SDS011;8306;51.128;4.476;2023-12-04T06:34:05;4.27;;;3.97;;
16393;SDS011;8306;51.128;4.476;2023-12-04T06:36:31;3.97;;;3.63;;
16393;SDS011;8306;51.128;4.476;2023-12-04T06:38:58;3.70;;;3.40;;
16393;SDS011;8306;51.128;4.476;2023-12-04T06:41:24;4.30;;;4.00;;
16393;SDS011;8306;51.128;4.476;2023-12-04T06:43:51;4.00;;;3.70;;
16393;SDS011;8306;51.128;4.476;2023-12-04T06:46:17;3.60;;;3.30;;
16393;SDS011;8306;51.128;4.476;2023-12-04T06:48:43;5.40;;;3.20;;
16393;SDS011;8306;51.128;4.476;2023-12-04T06:51:10;3.90;;;3.60;;
16393;SDS011;8306;51.128;4.476;2023-12-04T06:53:36;4.30;;;4.00;;
16393;SDS011;8306;51.128;4.476;2023-12-04T06:56:03;4.00;;;3.70;;
16393;SDS011;8306;51.128;4.476;2023-12-04T06:58:29;3.90;;;3.50;;
16393;SDS011;8306;51.128;4.476;2023-12-04T07:00:56;4.03;;;3.73;;
16393;SDS011;8306;51.128;4.476;2023-12-04T07:03:22;4.03;;;3.73;;
16393;SDS011;8306;51.128;4.476;2023-12-04T07:05:49;6.10;;;5.60;;
16393;SDS011;8306;51.128;4.476;2023-12-04T07:08:16;8.77;;;7.97;;
16393;SDS011;8306;51.128;4.476;2023-12-04T07:10:42;3.83;;;3.53;;
16393;SDS011;8306;51.128;4.476;2023-12-04T07:13:09;5.63;;;5.00;;
16393;SDS011;8306;51.128;4.476;2023-12-04T07:15:35;4.70;;;4.30;;
16393;SDS011;8306;51.128;4.476;2023-12-04T07:18:02;7.30;;;6.60;;
16393;SDS011;8306;51.128;4.476;2023-12-04T07:20:28;3.50;;;3.20;;
16393;SDS011;8306;51.128;4.476;2023-12-04T07:22:55;3.80;;;3.50;;
16393;SDS011;8306;51.128;4.476;2023-12-04T07:25:21;14.63;;;9.97;;
16393;SDS011;8306;51.128;4.476;2023-12-04T07:27:48;9.77;;;8.87;;
16393;SDS011;8306;51.128;4.476;2023-12-04T07:30:14;3.63;;;3.40;;
16393;SDS011;8306;51.128;4.476;2023-12-04T07:32:41;7.07;;;6.47;;
16393;SDS011;8306;51.128;4.476;2023-12-04T07:35:07;11.23;;;10.13;;
16393;SDS011;8306;51.128;4.476;2023-12-04T07:37:34;3.93;;;3.60;;
16393;SDS011;8306;51.128;4.476;2023-12-04T07:40:00;4.60;;;4.30;;
16393;SDS011;8306;51.128;4.476;2023-12-04T07:42:26;3.73;;;3.43;;
16393;SDS011;8306;51.128;4.476;2023-12-04T07:44:53;3.90;;;3.60;;
16393;SDS011;8306;51.128;4.476;2023-12-04T07:47:19;4.00;;;3.73;;
16393;SDS011;8306;51.128;4.476;2023-12-04T07:49:46;4.70;;;4.30;;
16393;SDS011;8306;51.128;4.476;2023-12-04T07:52:12;4.43;;;4.13;;
16393;SDS011;8306;51.128;4.476;2023-12-04T07:54:39;4.40;;;4.10;;
16393;SDS011;8306;51.128;4.476;2023-12-04T07:57:05;4.80;;;4.40;;
16393;SDS011;8306;51.128;4.476;2023-12-04T07:59:32;4.23;;;3.90;;
16393;SDS011;8306;51.128;4.476;2023-12-04T08:01:58;4.17;;;3.87;;
16393;SDS011;8306;51.128;4.476;2023-12-04T08:04:25;4.20;;;3.83;;
16393;SDS011;8306;51.128;4.476;2023-12-04T08:06:51;4.80;;;4.50;;
16393;SDS011;8306;51.128;4.476;2023-12-04T08:09:18;4.23;;;3.93;;
16393;SDS011;8306;51.128;4.476;2023-12-04T08:11:45;4.77;;;4.37;;
16393;SDS011;8306;51.128;4.476;2023-12-04T08:14:11;3.93;;;3.63;;
16393;SDS011;8306;51.128;4.476;2023-12-04T08:16:37;4.40;;;4.10;;
16393;SDS011;8306;51.128;4.476;2023-12-04T08:19:04;4.03;;;3.73;;
16393;SDS011;8306;51.128;4.476;2023-12-04T08:21:30;4.70;;;4.30;;
16393;SDS011;8306;51.128;4.476;2023-12-04T08:23:57;4.73;;;4.43;;
16393;SDS011;8306;51.128;4.476;2023-12-04T08:26:23;4.30;;;3.90;;
16393;SDS011;8306;51.128;4.476;2023-12-04T08:28:50;7.23;;;4.20;;
16393;SDS011;8306;51.128;4.476;2023-12-04T08:31:16;4.10;;;3.80;;
16393;SDS011;8306;51.128;4.476;2023-12-04T08:33:42;4.43;;;4.07;;
16393;SDS011;8306;51.128;4.476;2023-12-04T08:36:09;4.33;;;4.03;;
16393;SDS011;8306;51.128;4.476;2023-12-04T08:38:36;4.30;;;4.00;;
16393;SDS011;8306;51.128;4.476;2023-12-04T08:41:03;4.23;;;3.90;;
16393;SDS011;8306;51.128;4.476;2023-12-04T08:43:29;4.07;;;3.67;;
16393;SDS011;8306;51.128;4.476;2023-12-04T08:45:55;3.90;;;3.60;;
16393;SDS011;8306;51.128;4.476;2023-12-04T08:48:22;4.00;;;3.70;;
16393;SDS011;8306;51.128;4.476;2023-12-04T08:50:48;5.00;;;4.50;;
16393;SDS011;8306;51.128;4.476;2023-12-04T08:53:14;4.03;;;3.67;;
16393;SDS011;8306;51.128;4.476;2023-12-04T08:55:41;4.60;;;4.23;;
16393;SDS011;8306;51.128;4.476;2023-12-04T08:58:07;3.60;;;3.40;;
16393;SDS011;8306;51.128;4.476;2023-12-04T09:00:34;4.53;;;4.23;;
16393;SDS011;8306;51.128;4.476;2023-12-04T09:03:00;5.50;;;5.00;;
16393;SDS011;8306;51.128;4.476;2023-12-04T09:05:27;5.53;;;4.97;;
16393;SDS011;8306;51.128;4.476;2023-12-04T09:07:53;4.43;;;4.13;;
16393;SDS011;8306;51.128;4.476;2023-12-04T09:10:20;4.67;;;4.27;;
16393;SDS011;8306;51.128;4.476;2023-12-04T09:12:46;6.33;;;4.50;;
16393;SDS011;8306;51.128;4.476;2023-12-04T09:15:13;3.63;;;3.33;;
16393;SDS011;8306;51.128;4.476;2023-12-04T09:17:39;4.30;;;4.00;;
16393;SDS011;8306;51.128;4.476;2023-12-04T09:20:06;4.50;;;4.10;;
16393;SDS011;8306;51.128;4.476;2023-12-04T09:22:33;4.40;;;4.10;;
16393;SDS011;8306;51.128;4.476;2023-12-04T09:24:59;4.20;;;3.90;;
16393;SDS011;8306;51.128;4.476;2023-12-04T09:27:26;3.97;;;3.67;;
16393;SDS011;8306;51.128;4.476;2023-12-04T09:29:52;3.87;;;3.67;;
16393;SDS011;8306;51.128;4.476;2023-12-04T09:32:18;3.83;;;3.53;;
16393;SDS011;8306;51.128;4.476;2023-12-04T09:34:45;3.70;;;3.40;;
16393;SDS011;8306;51.128;4.476;2023-12-04T09:37:11;4.10;;;3.80;;
16393;SDS011;8306;51.128;4.476;2023-12-04T09:39:38;4.07;;;3.67;;
16393;SDS011;8306;51.128;4.476;2023-12-04T09:42:04;4.17;;;3.80;;
16393;SDS011;8306;51.128;4.476;2023-12-04T09:44:31;3.90;;;3.60;;
16393;SDS011;8306;51.128;4.476;2023-12-04T09:46:57;4.57;;;4.17;;
16393;SDS011;8306;51.128;4.476;2023-12-04T09:49:24;4.70;;;4.30;;
16393;SDS011;8306;51.128;4.476;2023-12-04T09:51:50;4.47;;;4.17;;
16393;SDS011;8306;51.128;4.476;2023-12-04T09:54:23;4.20;;;3.90;;
16393;SDS011;8306;51.128;4.476;2023-12-04T09:56:49;4.73;;;4.33;;
16393;SDS011;8306;51.128;4.476;2023-12-04T09:59:16;4.90;;;4.40;;
16393;SDS011;8306;51.128;4.476;2023-12-04T10:01:43;5.17;;;4.10;;
16393;SDS011;8306;51.128;4.476;2023-12-04T10:04:09;5.20;;;4.70;;
16393;SDS011;8306;51.128;4.476;2023-12-04T10:06:36;5.20;;;4.80;;
16393;SDS011;8306;51.128;4.476;2023-12-04T10:09:02;4.67;;;4.27;;
16393;SDS011;8306;51.128;4.476;2023-12-04T10:11:28;5.20;;;4.80;;
16393;SDS011;8306;51.128;4.476;2023-12-04T10:13:55;5.30;;;4.90;;
16393;SDS011;8306;51.128;4.476;2023-12-04T10:16:33;5.50;;;5.00;;
16393;SDS011;8306;51.128;4.476;2023-12-04T10:21:48;5.57;;;5.17;;
16393;SDS011;8306;51.128;4.476;2023-12-04T10:24:35;5.37;;;4.97;;
16393;SDS011;8306;51.128;4.476;2023-12-04T10:26:54;5.10;;;4.80;;
16393;SDS011;8306;51.128;4.476;2023-12-04T10:29:21;5.80;;;5.30;;
16393;SDS011;8306;51.128;4.476;2023-12-04T10:31:47;5.80;;;5.30;;
16393;SDS011;8306;51.128;4.476;2023-12-04T10:34:14;6.20;;;5.70;;
16393;SDS011;8306;51.128;4.476;2023-12-04T10:36:40;6.93;;;6.33;;
16393;SDS011;8306;51.128;4.476;2023-12-04T10:39:07;6.20;;;5.70;;
16393;SDS011;8306;51.128;4.476;2023-12-04T10:41:33;5.90;;;5.40;;
16393;SDS011;8306;51.128;4.476;2023-12-04T10:44:00;6.87;;;6.37;;
16393;SDS011;8306;51.128;4.476;2023-12-04T10:46:26;6.23;;;5.73;;
16393;SDS011;8306;51.128;4.476;2023-12-04T10:48:53;6.20;;;5.70;;
16393;SDS011;8306;51.128;4.476;2023-12-04T10:51:19;5.57;;;5.17;;
16393;SDS011;8306;51.128;4.476;2023-12-04T10:53:46;5.27;;;4.87;;
16393;SDS011;8306;51.128;4.476;2023-12-04T10:56:14;5.67;;;5.17;;
16393;SDS011;8306;51.128;4.476;2023-12-04T10:58:38;5.43;;;5.03;;
16393;SDS011;8306;51.128;4.476;2023-12-04T11:01:05;8.13;;;7.43;;
16393;SDS011;8306;51.128;4.476;2023-12-04T11:03:32;6.40;;;5.80;;
16393;SDS011;8306;51.128;4.476;2023-12-04T11:06:01;6.33;;;5.87;;
16393;SDS011;8306;51.128;4.476;2023-12-04T11:08:32;5.93;;;5.53;;
16393;SDS011;8306;51.128;4.476;2023-12-04T11:11:08;5.93;;;5.50;;
16393;SDS011;8306;51.128;4.476;2023-12-04T11:13:32;5.70;;;5.30;;
16393;SDS011;8306;51.128;4.476;2023-12-04T11:16:02;6.20;;;5.70;;
16393;SDS011;8306;51.128;4.476;2023-12-04T11:18:27;6.93;;;6.40;;
16393;SDS011;8306;51.128;4.476;2023-12-04T11:20:55;6.10;;;5.67;;
16393;SDS011;8306;51.128;4.476;2023-12-04T11:23:20;5.87;;;5.37;;
16393;SDS011;8306;51.128;4.476;2023-12-04T11:25:47;6.43;;;5.93;;
16393;SDS011;8306;51.128;4.476;2023-12-04T11:28:13;6.60;;;6.10;;
16393;SDS011;8306;51.128;4.476;2023-12-04T11:30:40;6.97;;;6.47;;
16393;SDS011;8306;51.128;4.476;2023-12-04T11:33:06;7.23;;;6.63;;
16393;SDS011;8306;51.128;4.476;2023-12-04T11:35:33;7.53;;;6.93;;
16393;SDS011;8306;51.128;4.476;2023-12-04T11:37:59;7.47;;;6.87;;
16393;SDS011;8306;51.128;4.476;2023-12-04T11:40:26;6.97;;;6.47;;
16393;SDS011;8306;51.128;4.476;2023-12-04T11:42:52;7.70;;;7.10;;
16393;SDS011;8306;51.128;4.476;2023-12-04T11:45:19;7.53;;;6.87;;
16393;SDS011;8306;51.128;4.476;2023-12-04T11:47:48;7.40;;;6.70;;
16393;SDS011;8306;51.128;4.476;2023-12-04T11:50:20;7.83;;;7.20;;
16393;SDS011;8306;51.128;4.476;2023-12-04T11:52:46;7.30;;;6.70;;
16393;SDS011;8306;51.128;4.476;2023-12-04T11:55:15;7.53;;;6.90;;
16393;SDS011;8306;51.128;4.476;2023-12-04T11:57:42;7.87;;;7.17;;
16393;SDS011;8306;51.128;4.476;2023-12-04T12:00:09;7.03;;;6.47;;
16393;SDS011;8306;51.128;4.476;2023-12-04T12:02:44;7.47;;;6.90;;
16393;SDS011;8306;51.128;4.476;2023-12-04T12:05:04;7.50;;;6.90;;
16393;SDS011;8306;51.128;4.476;2023-12-04T12:07:31;7.60;;;7.00;;
16393;SDS011;8306;51.128;4.476;2023-12-04T12:09:58;7.00;;;6.40;;
16393;SDS011;8306;51.128;4.476;2023-12-04T12:12:25;7.10;;;6.60;;
16393;SDS011;8306;51.128;4.476;2023-12-04T12:14:51;7.27;;;6.67;;
16393;SDS011;8306;51.128;4.476;2023-12-04T12:17:17;7.10;;;6.50;;
16393;SDS011;8306;51.128;4.476;2023-12-04T12:19:44;6.97;;;6.47;;
16393;SDS011;8306;51.128;4.476;2023-12-04T12:22:11;6.90;;;6.37;;
16393;SDS011;8306;51.128;4.476;2023-12-04T12:24:36;7.43;;;6.80;;
16393;SDS011;8306;51.128;4.476;2023-12-04T12:27:04;6.67;;;6.17;;
16393;SDS011;8306;51.128;4.476;2023-12-04T12:29:29;7.40;;;6.77;;
16393;SDS011;8306;51.128;4.476;2023-12-04T12:31:56;6.47;;;5.87;;
16393;SDS011;8306;51.128;4.476;2023-12-04T12:34:22;6.80;;;6.30;;
16393;SDS011;8306;51.128;4.476;2023-12-04T12:36:49;6.57;;;6.07;;
16393;SDS011;8306;51.128;4.476;2023-12-04T12:39:15;7.13;;;6.53;;
16393;SDS011;8306;51.128;4.476;2023-12-04T12:41:48;6.87;;;6.27;;
16393;SDS011;8306;51.128;4.476;2023-12-04T12:44:14;6.30;;;5.87;;
16393;SDS011;8306;51.128;4.476;2023-12-04T12:46:41;6.53;;;6.03;;
16393;SDS011;8306;51.128;4.476;2023-12-04T12:49:07;6.33;;;5.83;;
16393;SDS011;8306;51.128;4.476;2023-12-04T12:51:34;6.70;;;6.20;;
16393;SDS011;8306;51.128;4.476;2023-12-04T12:54:00;7.30;;;6.80;;
16393;SDS011;8306;51.128;4.476;2023-12-04T12:56:27;6.40;;;5.90;;
16393;SDS011;8306;51.128;4.476;2023-12-04T12:58:53;6.60;;;6.10;;
16393;SDS011;8306;51.128;4.476;2023-12-04T13:01:22;6.73;;;6.23;;
16393;SDS011;8306;51.128;4.476;2023-12-04T13:03:46;7.10;;;6.60;;
16393;SDS011;8306;51.128;4.476;2023-12-04T13:06:13;7.50;;;6.90;;
16393;SDS011;8306;51.128;4.476;2023-12-04T13:08:39;7.03;;;6.53;;
16393;SDS011;8306;51.128;4.476;2023-12-04T13:11:06;7.87;;;7.10;;
16393;SDS011;8306;51.128;4.476;2023-12-04T13:13:32;7.83;;;7.23;;
16393;SDS011;8306;51.128;4.476;2023-12-04T13:15:58;7.73;;;7.23;;
16393;SDS011;8306;51.128;4.476;2023-12-04T13:18:25;7.33;;;6.73;;
16393;SDS011;8306;51.128;4.476;2023-12-04T13:20:51;7.13;;;6.60;;
16393;SDS011;8306;51.128;4.476;2023-12-04T13:23:18;8.43;;;7.50;;
16393;SDS011;8306;51.128;4.476;2023-12-04T13:25:44;8.73;;;8.03;;
16393;SDS011;8306;51.128;4.476;2023-12-04T13:28:11;8.83;;;8.13;;
16393;SDS011;8306;51.128;4.476;2023-12-04T13:30:37;8.77;;;8.07;;
16393;SDS011;8306;51.128;4.476;2023-12-04T13:33:04;8.17;;;7.57;;
16393;SDS011;8306;51.128;4.476;2023-12-04T13:35:30;7.90;;;7.30;;
16393;SDS011;8306;51.128;4.476;2023-12-04T13:37:57;10.37;;;8.67;;
16393;SDS011;8306;51.128;4.476;2023-12-04T13:40:23;8.60;;;8.00;;
16393;SDS011;8306;51.128;4.476;2023-12-04T13:42:50;8.97;;;8.27;;
16393;SDS011;8306;51.128;4.476;2023-12-04T13:45:34;9.37;;;8.67;;
16393;SDS011;8306;51.128;4.476;2023-12-04T13:48:00;8.93;;;8.03;;
16393;SDS011;8306;51.128;4.476;2023-12-04T13:50:27;9.43;;;8.73;;
16393;SDS011;8306;51.128;4.476;2023-12-04T13:52:53;10.10;;;9.30;;
16393;SDS011;8306;51.128;4.476;2023-12-04T13:55:25;8.90;;;8.20;;
16393;SDS011;8306;51.128;4.476;2023-12-04T13:58:09;8.90;;;8.20;;
16393;SDS011;8306;51.128;4.476;2023-12-04T14:00:36;8.97;;;8.17;;
16393;SDS011;8306;51.128;4.476;2023-12-04T14:03:02;10.83;;;8.80;;
16393;SDS011;8306;51.128;4.476;2023-12-04T14:05:32;8.67;;;7.97;;
16393;SDS011;8306;51.128;4.476;2023-12-04T14:07:58;8.37;;;7.77;;
16393;SDS011;8306;51.128;4.476;2023-12-04T14:10:25;8.67;;;7.97;;
16393;SDS011;8306;51.128;4.476;2023-12-04T14:12:51;9.70;;;8.90;;
16393;SDS011;8306;51.128;4.476;2023-12-04T14:15:18;9.60;;;8.83;;
16393;SDS011;8306;51.128;4.476;2023-12-04T14:17:44;9.40;;;8.67;;
16393;SDS011;8306;51.128;4.476;2023-12-04T14:20:11;9.30;;;8.60;;
16393;SDS011;8306;51.128;4.476;2023-12-04T14:22:37;11.10;;;10.20;;
16393;SDS011;8306;51.128;4.476;2023-12-04T14:25:04;10.43;;;9.63;;
16393;SDS011;8306;51.128;4.476;2023-12-04T14:27:30;9.17;;;8.47;;
16393;SDS011;8306;51.128;4.476;2023-12-04T14:29:57;12.07;;;10.97;;
16393;SDS011;8306;51.128;4.476;2023-12-04T14:32:23;9.77;;;8.97;;
16393;SDS011;8306;51.128;4.476;2023-12-04T14:34:50;12.03;;;10.93;;
16393;SDS011;8306;51.128;4.476;2023-12-04T14:37:16;11.37;;;10.47;;
16393;SDS011;8306;51.128;4.476;2023-12-04T14:39:42;11.73;;;10.83;;
16393;SDS011;8306;51.128;4.476;2023-12-04T14:42:09;11.70;;;10.80;;
16393;SDS011;8306;51.128;4.476;2023-12-04T14:44:35;11.33;;;10.43;;
16393;SDS011;8306;51.128;4.476;2023-12-04T14:47:02;12.43;;;11.47;;
16393;SDS011;8306;51.128;4.476;2023-12-04T14:49:28;12.97;;;11.93;;
16393;SDS011;8306;51.128;4.476;2023-12-04T14:51:55;15.33;;;11.43;;
16393;SDS011;8306;51.128;4.476;2023-12-04T14:54:21;11.03;;;10.20;;
16393;SDS011;8306;51.128;4.476;2023-12-04T14:56:48;10.43;;;9.63;;
16393;SDS011;8306;51.128;4.476;2023-12-04T14:59:33;12.07;;;11.07;;